sensor_id;sensor_type;location;lat;lon;timestamp;pressure;altitude;pressure_sealevel;temperature;humidity
75815;BME280;70031;45.570;14.228;2024-01-27T00:01:48;97850.06;;;-0.58;100.00
75815;BME280;70031;45.570;14.228;2024-01-27T00:04:06;97852.34;;;-0.76;100.00
75815;BME280;70031;45.570;14.228;2024-01-27T00:06:25;97852.47;;;-1.13;100.00
75815;BME280;70031;45.570;14.228;2024-01-27T00:08:44;97845.91;;;-0.95;100.00
75815;BME280;70031;45.570;14.228;2024-01-27T00:11:03;97838.25;;;-0.90;100.00
75815;BME280;70031;45.570;14.228;2024-01-27T00:13:21;97844.53;;;-1.13;100.00
75815;BME280;70031;45.570;14.228;2024-01-27T00:15:40;97853.09;;;-0.89;100.00
75815;BME280;70031;45.570;14.228;2024-01-27T00:24:54;97856.56;;;-1.31;100.00
75815;BME280;70031;45.570;14.228;2024-01-27T00:27:12;97866.47;;;-1.84;100.00
75815;BME280;70031;45.570;14.228;2024-01-27T00:34:08;97876.25;;;-2.29;100.00
75815;BME280;70031;45.570;14.228;2024-01-27T00:36:27;97871.22;;;-2.24;100.00
75815;BME280;70031;45.570;14.228;2024-01-27T00:38:40;97876.69;;;-2.26;100.00
75815;BME280;70031;45.570;14.228;2024-01-27T00:40:59;97875.06;;;-2.12;100.00
75815;BME280;70031;45.570;14.228;2024-01-27T00:43:17;97868.88;;;-1.89;100.00
75815;BME280;70031;45.570;14.228;2024-01-27T00:45:36;97879.34;;;-2.11;100.00
75815;BME280;70031;45.570;14.228;2024-01-27T00:47:54;97879.41;;;-2.19;100.00
75815;BME280;70031;45.570;14.228;2024-01-27T00:50:12;97881.22;;;-2.34;100.00
75815;BME280;70031;45.570;14.228;2024-01-27T00:54:49;97878.59;;;-2.34;100.00
75815;BME280;70031;45.570;14.228;2024-01-27T01:04:03;97872.25;;;-2.40;100.00
75815;BME280;70031;45.570;14.228;2024-01-27T01:06:23;97892.16;;;-1.93;100.00
75815;BME280;70031;45.570;14.228;2024-01-27T01:10:36;97885.78;;;-2.28;100.00
75815;BME280;70031;45.570;14.228;2024-01-27T01:19:51;97891.31;;;-2.08;100.00
75815;BME280;70031;45.570;14.228;2024-01-27T01:24:29;97884.31;;;-1.72;100.00
75815;BME280;70031;45.570;14.228;2024-01-27T01:29:04;97884.69;;;-1.38;100.00
75815;BME280;70031;45.570;14.228;2024-01-27T01:31:23;97876.69;;;-1.45;100.00
75815;BME280;70031;45.570;14.228;2024-01-27T01:36:00;97885.03;;;-1.63;100.00
75815;BME280;70031;45.570;14.228;2024-01-27T01:49:52;97898.19;;;-1.12;100.00
75815;BME280;70031;45.570;14.228;2024-01-27T01:52:11;97892.91;;;-0.91;100.00
75815;BME280;70031;45.570;14.228;2024-01-27T01:54:29;97886.56;;;-0.96;100.00
75815;BME280;70031;45.570;14.228;2024-01-27T02:12:57;97873.28;;;-1.03;100.00
75815;BME280;70031;45.570;14.228;2024-01-27T02:17:35;97877.84;;;-0.69;100.00
75815;BME280;70031;45.570;14.228;2024-01-27T02:29:06;97877.63;;;-0.67;100.00
75815;BME280;70031;45.570;14.228;2024-01-27T02:36:02;97876.69;;;-0.60;100.00
75815;BME280;70031;45.570;14.228;2024-01-27T02:38:21;97877.28;;;-0.86;100.00
75815;BME280;70031;45.570;14.228;2024-01-27T02:54:07;97873.47;;;-1.04;100.00
75815;BME280;70031;45.570;14.228;2024-01-27T02:56:26;97872.13;;;-0.94;100.00
75815;BME280;70031;45.570;14.228;2024-01-27T02:58:45;97868.28;;;-0.91;100.00
75815;BME280;70031;45.570;14.228;2024-01-27T03:07:24;97867.09;;;-1.31;100.00
75815;BME280;70031;45.570;14.228;2024-01-27T03:09:30;97863.19;;;-1.35;100.00
75815;BME280;70031;45.570;14.228;2024-01-27T03:11:33;97859.53;;;-1.56;100.00
75815;BME280;70031;45.570;14.228;2024-01-27T03:15:51;97859.28;;;-1.90;100.00
75815;BME280;70031;45.570;14.228;2024-01-27T03:20:06;97860.25;;;-2.13;100.00
75815;BME280;70031;45.570;14.228;2024-01-27T03:22:17;97868.88;;;-2.19;100.00
75815;BME280;70031;45.570;14.228;2024-01-27T03:26:56;97870.78;;;-2.28;100.00
75815;BME280;70031;45.570;14.228;2024-01-27T03:33:55;97871.50;;;-2.04;100.00
75815;BME280;70031;45.570;14.228;2024-01-27T03:52:32;97894.97;;;-2.09;100.00
75815;BME280;70031;45.570;14.228;2024-01-27T03:54:47;97886.88;;;-2.08;100.00
75815;BME280;70031;45.570;14.228;2024-01-27T04:06:39;97896.88;;;-1.88;100.00
75815;BME280;70031;45.570;14.228;2024-01-27T04:10:45;97889.59;;;-1.86;100.00
75815;BME280;70031;45.570;14.228;2024-01-27T04:14:57;97890.69;;;-1.81;100.00
75815;BME280;70031;45.570;14.228;2024-01-27T04:17:08;97889.69;;;-1.80;100.00
75815;BME280;70031;45.570;14.228;2024-01-27T04:19:14;97892.56;;;-1.75;100.00
75815;BME280;70031;45.570;14.228;2024-01-27T04:23:36;97897.84;;;-1.75;100.00
75815;BME280;70031;45.570;14.228;2024-01-27T04:25:41;97906.25;;;-1.71;100.00
75815;BME280;70031;45.570;14.228;2024-01-27T04:28:15;97903.50;;;-1.78;100.00
75815;BME280;70031;45.570;14.228;2024-01-27T04:30:32;97907.25;;;-1.87;100.00
75815;BME280;70031;45.570;14.228;2024-01-27T04:32:45;97910.16;;;-1.82;100.00
75815;BME280;70031;45.570;14.228;2024-01-27T04:34:50;97912.25;;;-1.92;100.00
75815;BME280;70031;45.570;14.228;2024-01-27T04:41:12;97922.25;;;-1.87;100.00
75815;BME280;70031;45.570;14.228;2024-01-27T04:43:16;97932.63;;;-1.86;100.00
75815;BME280;70031;45.570;14.228;2024-01-27T04:54:38;97941.72;;;-1.88;100.00
75815;BME280;70031;45.570;14.228;2024-01-27T04:56:51;97944.28;;;-1.95;100.00
75815;BME280;70031;45.570;14.228;2024-01-27T05:01:06;97950.81;;;-2.06;100.00
75815;BME280;70031;45.570;14.228;2024-01-27T05:03:19;97955.00;;;-2.11;100.00
75815;BME280;70031;45.570;14.228;2024-01-27T05:07:43;97961.78;;;-2.17;100.00
75815;BME280;70031;45.570;14.228;2024-01-27T05:16:36;97952.25;;;-2.18;100.00
75815;BME280;70031;45.570;14.228;2024-01-27T05:20:54;97956.09;;;-1.91;100.00
75815;BME280;70031;45.570;14.228;2024-01-27T05:23:09;97961.66;;;-1.86;100.00
75815;BME280;70031;45.570;14.228;2024-01-27T05:29:47;97955.47;;;-1.63;100.00
75815;BME280;70031;45.570;14.228;2024-01-27T05:31:49;97956.00;;;-1.83;100.00
75815;BME280;70031;45.570;14.228;2024-01-27T05:38:48;97968.75;;;-1.72;100.00
75815;BME280;70031;45.570;14.228;2024-01-27T05:43:32;97977.13;;;-1.98;100.00
75815;BME280;70031;45.570;14.228;2024-01-27T05:49:44;97983.50;;;-2.30;100.00
75815;BME280;70031;45.570;14.228;2024-01-27T05:51:58;97989.63;;;-2.14;100.00
75815;BME280;70031;45.570;14.228;2024-01-27T05:54:04;97993.31;;;-1.86;100.00
75815;BME280;70031;45.570;14.228;2024-01-27T05:56:13;97990.13;;;-1.96;100.00
75815;BME280;70031;45.570;14.228;2024-01-27T05:58:32;97992.75;;;-1.96;100.00
75815;BME280;70031;45.570;14.228;2024-01-27T06:00:45;98003.56;;;-1.91;100.00
75815;BME280;70031;45.570;14.228;2024-01-27T06:04:58;97995.75;;;-1.84;100.00
75815;BME280;70031;45.570;14.228;2024-01-27T06:07:07;98015.13;;;-1.92;100.00
75815;BME280;70031;45.570;14.228;2024-01-27T06:13:58;98021.03;;;-2.05;100.00
75815;BME280;70031;45.570;14.228;2024-01-27T06:16:13;98025.50;;;-2.28;100.00
75815;BME280;70031;45.570;14.228;2024-01-27T06:18:32;98028.31;;;-1.92;100.00
75815;BME280;70031;45.570;14.228;2024-01-27T06:23:06;98028.13;;;-2.05;100.00
75815;BME280;70031;45.570;14.228;2024-01-27T06:25:22;98037.31;;;-2.24;100.00
75815;BME280;70031;45.570;14.228;2024-01-27T06:30:15;98057.31;;;-2.07;100.00
75815;BME280;70031;45.570;14.228;2024-01-27T06:37:07;98065.69;;;-2.49;100.00
75815;BME280;70031;45.570;14.228;2024-01-27T06:39:25;98068.41;;;-2.65;100.00
75815;BME280;70031;45.570;14.228;2024-01-27T06:44:11;98067.88;;;-2.84;100.00
75815;BME280;70031;45.570;14.228;2024-01-27T06:48:47;98072.56;;;-3.02;100.00
75815;BME280;70031;45.570;14.228;2024-01-27T06:55:26;98074.88;;;-2.68;100.00
75815;BME280;70031;45.570;14.228;2024-01-27T06:59:47;98090.72;;;-2.76;100.00
75815;BME280;70031;45.570;14.228;2024-01-27T07:04:14;98099.53;;;-2.92;100.00
75815;BME280;70031;45.570;14.228;2024-01-27T07:18:21;98114.69;;;-2.32;100.00
75815;BME280;70031;45.570;14.228;2024-01-27T07:22:43;98123.44;;;-2.62;100.00
75815;BME280;70031;45.570;14.228;2024-01-27T07:24:52;98121.84;;;-2.71;100.00
75815;BME280;70031;45.570;14.228;2024-01-27T07:27:11;98131.16;;;-2.61;100.00
75815;BME280;70031;45.570;14.228;2024-01-27T07:29:18;98138.28;;;-2.38;100.00
75815;BME280;70031;45.570;14.228;2024-01-27T07:33:30;98148.41;;;-2.58;100.00
75815;BME280;70031;45.570;14.228;2024-01-27T07:35:33;98149.75;;;-2.54;100.00
75815;BME280;70031;45.570;14.228;2024-01-27T07:39:57;98147.94;;;-2.08;100.00
75815;BME280;70031;45.570;14.228;2024-01-27T07:46:27;98148.31;;;-1.65;100.00
75815;BME280;70031;45.570;14.228;2024-01-27T07:50:57;98156.94;;;-1.71;100.00
75815;BME280;70031;45.570;14.228;2024-01-27T07:55:29;98154.41;;;-2.10;100.00
75815;BME280;70031;45.570;14.228;2024-01-27T07:57:38;98162.34;;;-1.87;100.00
75815;BME280;70031;45.570;14.228;2024-01-27T07:59:38;98167.66;;;-1.95;100.00
75815;BME280;70031;45.570;14.228;2024-01-27T08:02:00;98167.66;;;-1.73;100.00
75815;BME280;70031;45.570;14.228;2024-01-27T08:04:03;98169.38;;;-1.80;100.00
75815;BME280;70031;45.570;14.228;2024-01-27T08:16:21;98186.94;;;-0.97;100.00
75815;BME280;70031;45.570;14.228;2024-01-27T08:23:04;98175.88;;;-0.41;100.00
75815;BME280;70031;45.570;14.228;2024-01-27T08:25:11;98184.22;;;-0.23;100.00
75815;BME280;70031;45.570;14.228;2024-01-27T08:29:32;98183.22;;;-0.01;100.00
75815;BME280;70031;45.570;14.228;2024-01-27T08:31:50;98183.91;;;-0.13;100.00
75815;BME280;70031;45.570;14.228;2024-01-27T08:34:07;98172.47;;;0.22;100.00
75815;BME280;70031;45.570;14.228;2024-01-27T08:38:25;98194.88;;;-0.16;100.00
75815;BME280;70031;45.570;14.228;2024-01-27T08:40:38;98201.47;;;0.09;100.00
75815;BME280;70031;45.570;14.228;2024-01-27T08:45:11;98195.78;;;0.12;100.00
75815;BME280;70031;45.570;14.228;2024-01-27T08:49:32;98193.91;;;1.33;100.00
75815;BME280;70031;45.570;14.228;2024-01-27T08:51:40;98195.53;;;1.75;100.00
75815;BME280;70031;45.570;14.228;2024-01-27T08:53:55;98196.81;;;1.92;100.00
75815;BME280;70031;45.570;14.228;2024-01-27T08:58:16;98191.78;;;2.37;100.00
75815;BME280;70031;45.570;14.228;2024-01-27T09:02:22;98189.16;;;2.77;100.00
75815;BME280;70031;45.570;14.228;2024-01-27T09:04:38;98194.47;;;2.84;100.00
75815;BME280;70031;45.570;14.228;2024-01-27T09:06:38;98201.81;;;3.01;100.00
75815;BME280;70031;45.570;14.228;2024-01-27T09:08:54;98200.56;;;3.24;100.00
75815;BME280;70031;45.570;14.228;2024-01-27T09:11:03;98209.97;;;3.33;100.00
75815;BME280;70031;45.570;14.228;2024-01-27T09:22:27;98217.97;;;3.91;100.00
75815;BME280;70031;45.570;14.228;2024-01-27T09:24:39;98225.31;;;3.95;100.00
75815;BME280;70031;45.570;14.228;2024-01-27T09:33:52;98226.63;;;4.25;100.00
75815;BME280;70031;45.570;14.228;2024-01-27T09:38:51;98225.16;;;4.92;100.00
75815;BME280;70031;45.570;14.228;2024-01-27T09:41:11;98226.00;;;5.11;100.00
75815;BME280;70031;45.570;14.228;2024-01-27T09:43:33;98217.56;;;5.39;100.00
75815;BME280;70031;45.570;14.228;2024-01-27T09:45:52;98218.31;;;5.64;100.00
75815;BME280;70031;45.570;14.228;2024-01-27T09:48:01;98225.00;;;5.73;100.00
75815;BME280;70031;45.570;14.228;2024-01-27T09:52:30;98228.19;;;6.60;100.00
75815;BME280;70031;45.570;14.228;2024-01-27T09:54:46;98228.75;;;6.51;100.00
75815;BME280;70031;45.570;14.228;2024-01-27T09:57:02;98222.81;;;6.79;100.00
75815;BME280;70031;45.570;14.228;2024-01-27T10:03:57;98228.44;;;7.24;100.00
75815;BME280;70031;45.570;14.228;2024-01-27T10:08:38;98223.66;;;7.38;100.00
75815;BME280;70031;45.570;14.228;2024-01-27T10:11:10;98221.66;;;7.80;100.00
75815;BME280;70031;45.570;14.228;2024-01-27T10:13:42;98219.16;;;7.90;100.00
75815;BME280;70031;45.570;14.228;2024-01-27T10:21:13;98220.97;;;8.53;100.00
75815;BME280;70031;45.570;14.228;2024-01-27T10:23:44;98222.09;;;8.57;100.00
75815;BME280;70031;45.570;14.228;2024-01-27T10:26:02;98207.50;;;9.15;100.00
75815;BME280;70031;45.570;14.228;2024-01-27T10:28:21;98220.66;;;9.34;100.00
75815;BME280;70031;45.570;14.228;2024-01-27T10:37:38;98214.19;;;9.68;100.00
75815;BME280;70031;45.570;14.228;2024-01-27T10:46:45;98204.31;;;10.66;100.00
75815;BME280;70031;45.570;14.228;2024-01-27T10:49:13;98200.91;;;10.76;100.00
75815;BME280;70031;45.570;14.228;2024-01-27T10:54:07;98196.69;;;11.17;100.00
75815;BME280;70031;45.570;14.228;2024-01-27T11:05:49;98198.81;;;11.58;100.00
75815;BME280;70031;45.570;14.228;2024-01-27T11:13:04;98201.81;;;12.24;100.00
75815;BME280;70031;45.570;14.228;2024-01-27T11:15:30;98201.88;;;12.39;100.00
75815;BME280;70031;45.570;14.228;2024-01-27T13:21:16;98175.78;;;13.26;41.19
75815;BME280;70031;45.570;14.228;2024-01-27T13:25:32;98173.88;;;13.16;38.44
75815;BME280;70031;45.570;14.228;2024-01-27T13:39:31;98177.66;;;13.20;42.30
75815;BME280;70031;45.570;14.228;2024-01-27T13:44:08;98189.56;;;13.25;41.66
75815;BME280;70031;45.570;14.228;2024-01-27T13:50:57;98191.69;;;12.87;39.78
75815;BME280;70031;45.570;14.228;2024-01-27T13:53:12;98190.88;;;12.86;40.52
75815;BME280;70031;45.570;14.228;2024-01-27T13:55:28;98191.97;;;12.96;40.96
75815;BME280;70031;45.570;14.228;2024-01-27T13:59:46;98196.28;;;12.76;42.96
75815;BME280;70031;45.570;14.228;2024-01-27T14:01:58;98201.41;;;12.73;41.92
75815;BME280;70031;45.570;14.228;2024-01-27T14:06:26;98213.00;;;12.53;41.85
75815;BME280;70031;45.570;14.228;2024-01-27T14:08:26;98210.50;;;12.41;39.74
75815;BME280;70031;45.570;14.228;2024-01-27T14:12:27;98208.91;;;12.45;41.17
75815;BME280;70031;45.570;14.228;2024-01-27T14:14:45;98204.31;;;12.35;40.81
75815;BME280;70031;45.570;14.228;2024-01-27T14:22:09;98213.16;;;12.21;40.99
75815;BME280;70031;45.570;14.228;2024-01-27T14:28:31;98214.72;;;12.06;43.24
75815;BME280;70031;45.570;14.228;2024-01-27T14:35:39;98216.25;;;11.87;40.00
75815;BME280;70031;45.570;14.228;2024-01-27T14:49:22;98212.63;;;11.71;39.05
75815;BME280;70031;45.570;14.228;2024-01-27T14:55:46;98218.78;;;11.62;41.33
75815;BME280;70031;45.570;14.228;2024-01-27T15:06:49;98219.97;;;11.39;39.94
75815;BME280;70031;45.570;14.228;2024-01-27T15:18:46;98238.41;;;11.15;41.09
75815;BME280;70031;45.570;14.228;2024-01-27T15:21:04;98241.31;;;11.08;41.78
75815;BME280;70031;45.570;14.228;2024-01-27T15:30:18;98246.25;;;10.35;44.04
75815;BME280;70031;45.570;14.228;2024-01-27T15:39:57;98263.47;;;9.57;46.11
75815;BME280;70031;45.570;14.228;2024-01-27T15:48:52;98273.63;;;8.31;58.88
75815;BME280;70031;45.570;14.228;2024-01-27T15:56:47;98270.25;;;8.64;50.17
75815;BME280;70031;45.570;14.228;2024-01-27T16:01:21;98276.81;;;8.56;49.98
75815;BME280;70031;45.570;14.228;2024-01-27T16:03:35;98287.22;;;8.53;49.35
75815;BME280;70031;45.570;14.228;2024-01-27T16:12:42;98292.75;;;8.23;50.60
75815;BME280;70031;45.570;14.228;2024-01-27T16:14:59;98299.09;;;8.05;51.79
75815;BME280;70031;45.570;14.228;2024-01-27T16:29:36;98308.25;;;7.03;64.80
75815;BME280;70031;45.570;14.228;2024-01-27T16:35:58;98311.41;;;6.22;96.82
75815;BME280;70031;45.570;14.228;2024-01-27T16:40:23;98312.16;;;6.29;100.00
75815;BME280;70031;45.570;14.228;2024-01-27T16:42:35;98315.50;;;6.06;100.00
75815;BME280;70031;45.570;14.228;2024-01-27T16:44:43;98317.97;;;5.83;100.00
75815;BME280;70031;45.570;14.228;2024-01-27T16:55:25;98329.06;;;4.80;100.00
75815;BME280;70031;45.570;14.228;2024-01-27T16:57:44;98328.81;;;4.88;100.00
75815;BME280;70031;45.570;14.228;2024-01-27T16:59:53;98329.25;;;4.78;100.00
75815;BME280;70031;45.570;14.228;2024-01-27T17:11:19;98350.47;;;4.09;100.00
75815;BME280;70031;45.570;14.228;2024-01-27T17:13:35;98350.63;;;4.27;100.00
75815;BME280;70031;45.570;14.228;2024-01-27T17:22:10;98358.56;;;3.49;100.00
75815;BME280;70031;45.570;14.228;2024-01-27T17:32:01;98374.50;;;3.36;100.00
75815;BME280;70031;45.570;14.228;2024-01-27T17:45:18;98380.19;;;2.39;100.00
75815;BME280;70031;45.570;14.228;2024-01-27T17:47:21;98389.72;;;2.20;100.00
75815;BME280;70031;45.570;14.228;2024-01-27T17:49:38;98390.44;;;2.01;100.00
75815;BME280;70031;45.570;14.228;2024-01-27T17:58:52;98397.69;;;1.85;100.00
75815;BME280;70031;45.570;14.228;2024-01-27T18:01:02;98402.25;;;1.98;100.00
75815;BME280;70031;45.570;14.228;2024-01-27T18:12:16;98416.25;;;1.85;100.00
75815;BME280;70031;45.570;14.228;2024-01-27T18:14:31;98419.63;;;1.73;100.00
75815;BME280;70031;45.570;14.228;2024-01-27T18:16:50;98423.56;;;1.55;100.00
75815;BME280;70031;45.570;14.228;2024-01-27T18:23:41;98450.91;;;0.92;100.00
75815;BME280;70031;45.570;14.228;2024-01-27T18:26:15;98456.22;;;0.92;100.00
75815;BME280;70031;45.570;14.228;2024-01-27T19:03:13;98506.75;;;0.16;100.00
75815;BME280;70031;45.570;14.228;2024-01-27T19:05:16;98514.81;;;-0.15;100.00
75815;BME280;70031;45.570;14.228;2024-01-27T19:09:44;98517.91;;;-0.11;100.00
75815;BME280;70031;45.570;14.228;2024-01-27T19:16:49;98527.47;;;-0.71;100.00
75815;BME280;70031;45.570;14.228;2024-01-27T19:19:05;98522.81;;;-0.46;100.00
75815;BME280;70031;45.570;14.228;2024-01-27T19:21:24;98529.22;;;-0.63;100.00
75815;BME280;70031;45.570;14.228;2024-01-27T19:23:36;98531.56;;;-0.68;100.00
75815;BME280;70031;45.570;14.228;2024-01-27T19:25:49;98533.94;;;-0.73;100.00
75815;BME280;70031;45.570;14.228;2024-01-27T19:28:04;98534.28;;;-1.07;100.00
75815;BME280;70031;45.570;14.228;2024-01-27T19:33:01;98547.44;;;-0.45;100.00
75815;BME280;70031;45.570;14.228;2024-01-27T19:35:13;98550.88;;;-0.37;100.00
75815;BME280;70031;45.570;14.228;2024-01-27T19:37:23;98556.09;;;-1.14;100.00
75815;BME280;70031;45.570;14.228;2024-01-27T19:39:30;98561.56;;;-1.23;100.00
75815;BME280;70031;45.570;14.228;2024-01-27T19:43:50;98567.25;;;-1.59;100.00
75815;BME280;70031;45.570;14.228;2024-01-27T19:45:53;98570.88;;;-1.52;100.00
75815;BME280;70031;45.570;14.228;2024-01-27T19:48:05;98561.47;;;-1.46;100.00
75815;BME280;70031;45.570;14.228;2024-01-27T19:50:18;98568.50;;;-1.22;100.00
75815;BME280;70031;45.570;14.228;2024-01-27T20:11:37;98622.75;;;-2.66;100.00
75815;BME280;70031;45.570;14.228;2024-01-27T20:13:47;98631.97;;;-2.70;100.00
75815;BME280;70031;45.570;14.228;2024-01-27T20:15:56;98621.22;;;-2.85;100.00
75815;BME280;70031;45.570;14.228;2024-01-27T20:18:11;98626.13;;;-2.90;100.00
75815;BME280;70031;45.570;14.228;2024-01-27T20:20:21;98619.59;;;-2.78;100.00
75815;BME280;70031;45.570;14.228;2024-01-27T20:22:36;98623.69;;;-2.25;100.00
75815;BME280;70031;45.570;14.228;2024-01-27T20:32:03;98630.94;;;-2.19;100.00
75815;BME280;70031;45.570;14.228;2024-01-27T20:36:34;98636.19;;;-3.54;100.00
75815;BME280;70031;45.570;14.228;2024-01-27T20:38:43;98633.06;;;-3.49;100.00
75815;BME280;70031;45.570;14.228;2024-01-27T20:43:08;98643.31;;;-3.46;100.00
75815;BME280;70031;45.570;14.228;2024-01-27T20:47:29;98636.09;;;-3.10;100.00
75815;BME280;70031;45.570;14.228;2024-01-27T20:49:42;98636.50;;;-3.23;100.00
75815;BME280;70031;45.570;14.228;2024-01-27T21:00:24;98643.78;;;-2.83;100.00
75815;BME280;70031;45.570;14.228;2024-01-27T21:10:09;98655.25;;;-3.26;100.00
75815;BME280;70031;45.570;14.228;2024-01-27T21:12:09;98669.19;;;-3.33;100.00
75815;BME280;70031;45.570;14.228;2024-01-27T21:14:12;98669.81;;;-3.40;100.00
75815;BME280;70031;45.570;14.228;2024-01-27T21:23:18;98685.06;;;-4.22;100.00
75815;BME280;70031;45.570;14.228;2024-01-27T21:32:57;98681.75;;;-3.89;100.00
75815;BME280;70031;45.570;14.228;2024-01-27T21:37:54;98687.63;;;-3.95;100.00
75815;BME280;70031;45.570;14.228;2024-01-27T21:49:38;98702.41;;;-3.58;100.00
75815;BME280;70031;45.570;14.228;2024-01-27T21:51:48;98710.00;;;-3.73;100.00
75815;BME280;70031;45.570;14.228;2024-01-27T22:01:16;98718.44;;;-3.70;100.00
75815;BME280;70031;45.570;14.228;2024-01-27T22:05:47;98716.16;;;-4.18;100.00
75815;BME280;70031;45.570;14.228;2024-01-27T22:08:02;98725.25;;;-4.30;100.00
75815;BME280;70031;45.570;14.228;2024-01-27T22:13:07;98731.13;;;-4.18;100.00
75815;BME280;70031;45.570;14.228;2024-01-27T22:19:51;98736.94;;;-3.79;100.00
75815;BME280;70031;45.570;14.228;2024-01-27T22:22:10;98739.91;;;-4.10;100.00
75815;BME280;70031;45.570;14.228;2024-01-27T22:28:30;98739.00;;;-4.18;100.00
75815;BME280;70031;45.570;14.228;2024-01-27T22:30:51;98744.03;;;-4.07;100.00
75815;BME280;70031;45.570;14.228;2024-01-27T22:32:58;98737.34;;;-4.19;100.00
75815;BME280;70031;45.570;14.228;2024-01-27T22:35:34;98754.03;;;-4.11;100.00
75815;BME280;70031;45.570;14.228;2024-01-27T22:37:45;98756.94;;;-4.14;100.00
75815;BME280;70031;45.570;14.228;2024-01-27T22:39:45;98751.56;;;-4.12;100.00
75815;BME280;70031;45.570;14.228;2024-01-27T22:42:04;98755.16;;;-4.13;100.00
75815;BME280;70031;45.570;14.228;2024-01-27T22:49:01;98767.78;;;-4.44;100.00
75815;BME280;70031;45.570;14.228;2024-01-27T22:51:19;98771.59;;;-4.39;100.00
75815;BME280;70031;45.570;14.228;2024-01-27T22:55:36;98766.44;;;-4.03;100.00
75815;BME280;70031;45.570;14.228;2024-01-27T22:59:57;98755.50;;;-4.26;100.00
75815;BME280;70031;45.570;14.228;2024-01-27T23:07:08;98761.78;;;-4.09;100.00
